KLM565 LZKZ-LJLJ
Flight info
| Callsign | KLM565 |
|---|---|
| Flight time | 1h 0m |
| Altitude | 30000 |
| Route | TAKOS DCT TABIN DCT VAMOG DCT SASAL DCT RADLY RADLY2L |
| Aircraft | B738/M-SDE2E3FGHIRWXY/LB1 |
Departure
| Time | 2026-04-25 20:07 |
|---|---|
| Airport | Košice International Airport (LZKZ) |
Arrival
| Time | 2026-04-25 21:07 |
|---|---|
| Airport | Ljubljana Jože Pučnik Airport (LJLJ) |
| Time | Latitude | Longitude | Altitude | Speed | Heading |
|---|---|---|---|---|---|
| 2026-04-25 19:40 | 48.67222 | 21.24089 | 763 ft | 0 kts | 193° |
| 2026-04-25 20:03 | 48.67217 | 21.24089 | 763 ft | 3 kts | 180° |
| 2026-04-25 20:03 | 48.67203 | 21.24129 | 763 ft | 8 kts | 63° |
| 2026-04-25 20:04 | 48.67252 | 21.24209 | 763 ft | 13 kts | 85° |
| 2026-04-25 20:04 | 48.67236 | 21.24372 | 763 ft | 18 kts | 103° |
| 2026-04-25 20:04 | 48.67203 | 21.24582 | 763 ft | 23 kts | 102° |
| 2026-04-25 20:04 | 48.67221 | 21.24779 | 763 ft | 17 kts | 20° |
| 2026-04-25 20:05 | 48.67347 | 21.24826 | 763 ft | 21 kts | 12° |
| 2026-04-25 20:05 | 48.67478 | 21.24873 | 763 ft | 17 kts | 14° |
| 2026-04-25 20:05 | 48.67593 | 21.24889 | 763 ft | 18 kts | 324° |
| 2026-04-25 20:05 | 48.67634 | 21.24738 | 763 ft | 17 kts | 282° |
| 2026-04-25 20:06 | 48.67600 | 21.24574 | 763 ft | 16 kts | 207° |
| 2026-04-25 20:06 | 48.67487 | 21.24529 | 763 ft | 23 kts | 193° |
| 2026-04-25 20:06 | 48.67054 | 21.24382 | 763 ft | 105 kts | 194° |
| 2026-04-25 20:06 | 48.66114 | 21.24056 | 920 ft | 161 kts | 193° |
| 2026-04-25 20:07 | 48.65008 | 21.23699 | 1880 ft | 161 kts | 193° |
| 2026-04-25 20:07 | 48.63888 | 21.23353 | 2691 ft | 174 kts | 193° |
| 2026-04-25 20:07 | 48.62608 | 21.22965 | 3172 ft | 202 kts | 194° |
| 2026-04-25 20:07 | 48.61140 | 21.22522 | 3624 ft | 227 kts | 194° |
| 2026-04-25 20:08 | 48.59584 | 21.22058 | 4557 ft | 227 kts | 194° |
| 2026-04-25 20:08 | 48.58045 | 21.21561 | 5576 ft | 227 kts | 197° |
| 2026-04-25 20:08 | 48.56655 | 21.20462 | 6473 ft | 224 kts | 226° |
| 2026-04-25 20:08 | 48.55829 | 21.18528 | 7364 ft | 219 kts | 256° |
| 2026-04-25 20:09 | 48.55689 | 21.16258 | 8181 ft | 222 kts | 276° |
| 2026-04-25 20:09 | 48.55900 | 21.13867 | 8773 ft | 239 kts | 282° |
| 2026-04-25 20:09 | 48.56261 | 21.11316 | 9317 ft | 258 kts | 285° |
| 2026-04-25 20:09 | 48.56690 | 21.08608 | 10004 ft | 270 kts | 285° |
| 2026-04-25 20:10 | 48.57093 | 21.05811 | 10851 ft | 278 kts | 281° |
| 2026-04-25 20:10 | 48.57286 | 21.02820 | 11429 ft | 296 kts | 275° |
| 2026-04-25 20:10 | 48.57335 | 20.99601 | 11843 ft | 318 kts | 273° |
| 2026-04-25 20:10 | 48.57365 | 20.96181 | 12358 ft | 333 kts | 274° |
| 2026-04-25 20:11 | 48.57408 | 20.92653 | 13134 ft | 339 kts | 274° |
| 2026-04-25 20:11 | 48.57454 | 20.89038 | 13986 ft | 343 kts | 274° |
| 2026-04-25 20:11 | 48.57510 | 20.85417 | 14794 ft | 347 kts | 275° |
| 2026-04-25 20:11 | 48.57564 | 20.81777 | 15713 ft | 346 kts | 274° |
| 2026-04-25 20:12 | 48.57616 | 20.78149 | 16606 ft | 347 kts | 274° |
| 2026-04-25 20:12 | 48.57675 | 20.74486 | 17351 ft | 351 kts | 274° |
| 2026-04-25 20:12 | 48.57749 | 20.70789 | 18046 ft | 356 kts | 274° |
| 2026-04-25 20:12 | 48.57793 | 20.68318 | 18527 ft | 358 kts | 274° |
| 2026-04-25 20:13 | 48.57872 | 20.63256 | 19452 ft | 362 kts | 274° |
| 2026-04-25 20:13 | 48.57926 | 20.59463 | 20201 ft | 364 kts | 274° |
| 2026-04-25 20:13 | 48.57976 | 20.55626 | 20857 ft | 367 kts | 274° |
| 2026-04-25 20:13 | 48.58024 | 20.51775 | 21564 ft | 368 kts | 274° |
| 2026-04-25 20:14 | 48.58069 | 20.47909 | 22223 ft | 370 kts | 274° |
| 2026-04-25 20:14 | 48.58113 | 20.44019 | 22887 ft | 371 kts | 274° |
| 2026-04-25 20:14 | 48.58156 | 20.40065 | 23490 ft | 373 kts | 274° |
| 2026-04-25 20:14 | 48.58199 | 20.36140 | 24021 ft | 377 kts | 275° |
| 2026-04-25 20:15 | 48.58233 | 20.32162 | 24509 ft | 382 kts | 273° |
| 2026-04-25 20:15 | 48.58005 | 20.28180 | 25295 ft | 380 kts | 265° |
| 2026-04-25 20:15 | 48.57423 | 20.24263 | 25836 ft | 386 kts | 258° |
| 2026-04-25 20:15 | 48.56603 | 20.20372 | 26265 ft | 391 kts | 256° |
| 2026-04-25 20:16 | 48.55686 | 20.16501 | 26711 ft | 395 kts | 255° |
| 2026-04-25 20:16 | 48.54721 | 20.12594 | 27142 ft | 399 kts | 254° |
| 2026-04-25 20:16 | 48.53747 | 20.08678 | 27566 ft | 401 kts | 254° |
| 2026-04-25 20:16 | 48.52763 | 20.04743 | 28130 ft | 400 kts | 254° |
| 2026-04-25 20:17 | 48.51785 | 20.00845 | 28748 ft | 397 kts | 254° |
| 2026-04-25 20:17 | 48.50805 | 19.96953 | 29234 ft | 398 kts | 254° |
| 2026-04-25 20:17 | 48.49809 | 19.93013 | 29740 ft | 398 kts | 254° |
| 2026-04-25 20:17 | 48.48833 | 19.89162 | 29930 ft | 399 kts | 254° |
| 2026-04-25 20:18 | 48.46840 | 19.81328 | 29947 ft | 396 kts | 254° |
| 2026-04-25 20:18 | 48.44904 | 19.73627 | 29951 ft | 393 kts | 254° |
| 2026-04-25 20:19 | 48.42975 | 19.65931 | 29954 ft | 393 kts | 254° |
| 2026-04-25 20:19 | 48.41030 | 19.58243 | 29963 ft | 394 kts | 254° |
| 2026-04-25 20:20 | 48.39062 | 19.50519 | 29963 ft | 394 kts | 254° |
| 2026-04-25 20:20 | 48.37098 | 19.42850 | 29963 ft | 394 kts | 254° |
| 2026-04-25 20:21 | 48.35126 | 19.35187 | 29964 ft | 394 kts | 254° |
| 2026-04-25 20:21 | 48.33147 | 19.27527 | 29963 ft | 394 kts | 253° |
| 2026-04-25 20:22 | 48.31819 | 19.22401 | 29963 ft | 394 kts | 253° |
| 2026-04-25 20:22 | 48.29160 | 19.12176 | 29965 ft | 393 kts | 253° |
| 2026-04-25 20:23 | 48.27166 | 19.04542 | 29964 ft | 394 kts | 253° |
| 2026-04-25 20:23 | 48.25169 | 18.96918 | 29962 ft | 393 kts | 253° |
| 2026-04-25 20:24 | 48.23166 | 18.89301 | 29947 ft | 392 kts | 253° |
| 2026-04-25 20:24 | 48.21153 | 18.81667 | 29936 ft | 392 kts | 253° |
| 2026-04-25 20:25 | 48.19147 | 18.74082 | 29928 ft | 391 kts | 253° |
| 2026-04-25 20:25 | 48.17142 | 18.66529 | 29916 ft | 391 kts | 253° |
| 2026-04-25 20:26 | 48.15129 | 18.58972 | 29933 ft | 392 kts | 253° |
| 2026-04-25 20:26 | 48.13115 | 18.51385 | 29954 ft | 393 kts | 253° |
| 2026-04-25 20:27 | 48.11098 | 18.43764 | 29963 ft | 392 kts | 252° |
| 2026-04-25 20:27 | 48.09077 | 18.36246 | 29965 ft | 392 kts | 252° |
| 2026-04-25 20:28 | 48.07022 | 18.28661 | 29964 ft | 392 kts | 252° |
| 2026-04-25 20:28 | 48.04970 | 18.21124 | 29964 ft | 392 kts | 252° |
| 2026-04-25 20:29 | 48.02917 | 18.13607 | 29964 ft | 392 kts | 251° |
| 2026-04-25 20:29 | 48.00257 | 18.06437 | 29965 ft | 400 kts | 240° |
| 2026-04-25 20:30 | 47.96847 | 17.99761 | 29965 ft | 403 kts | 237° |
| 2026-04-25 20:30 | 47.93353 | 17.93241 | 29964 ft | 403 kts | 237° |
| 2026-04-25 20:31 | 47.89835 | 17.86738 | 29966 ft | 404 kts | 237° |
| 2026-04-25 20:31 | 47.86236 | 17.80117 | 29965 ft | 406 kts | 236° |
| 2026-04-25 20:32 | 47.82695 | 17.73622 | 29964 ft | 404 kts | 236° |
| 2026-04-25 20:32 | 47.79151 | 17.67102 | 29967 ft | 408 kts | 238° |
| 2026-04-25 20:33 | 47.75985 | 17.60070 | 29974 ft | 411 kts | 243° |
| 2026-04-25 20:33 | 47.74013 | 17.55252 | 29973 ft | 409 kts | 243° |
| 2026-04-25 20:34 | 47.70078 | 17.45698 | 29965 ft | 403 kts | 243° |
| 2026-04-25 20:34 | 47.67629 | 17.39809 | 29970 ft | 406 kts | 243° |
| 2026-04-25 20:35 | 47.64149 | 17.31489 | 29971 ft | 406 kts | 243° |
| 2026-04-25 20:35 | 47.61162 | 17.24382 | 29975 ft | 410 kts | 243° |
| 2026-04-25 20:36 | 47.58699 | 17.18460 | 29976 ft | 411 kts | 243° |
| 2026-04-25 20:36 | 47.55671 | 17.11203 | 29977 ft | 412 kts | 243° |
| 2026-04-25 20:37 | 47.52582 | 17.03851 | 29976 ft | 407 kts | 243° |
| 2026-04-25 20:37 | 47.49586 | 16.96757 | 29977 ft | 408 kts | 243° |
| 2026-04-25 20:38 | 47.46554 | 16.89602 | 29980 ft | 408 kts | 243° |
| 2026-04-25 20:38 | 47.43558 | 16.82484 | 29981 ft | 408 kts | 243° |
| 2026-04-25 20:39 | 47.40549 | 16.75402 | 29980 ft | 407 kts | 243° |
| 2026-04-25 20:39 | 47.38022 | 16.69500 | 29980 ft | 407 kts | 243° |
| 2026-04-25 20:40 | 47.34503 | 16.61319 | 29980 ft | 406 kts | 242° |
| 2026-04-25 20:40 | 47.31457 | 16.54254 | 29981 ft | 406 kts | 242° |
| 2026-04-25 20:41 | 47.28429 | 16.47245 | 29985 ft | 408 kts | 242° |
| 2026-04-25 20:41 | 47.25127 | 16.40363 | 29994 ft | 413 kts | 238° |
| 2026-04-25 20:42 | 47.21713 | 16.33590 | 29994 ft | 413 kts | 238° |
| 2026-04-25 20:42 | 47.18298 | 16.26795 | 29994 ft | 414 kts | 238° |
| 2026-04-25 20:43 | 47.14908 | 16.20041 | 29994 ft | 408 kts | 238° |
| 2026-04-25 20:43 | 47.11543 | 16.13339 | 29982 ft | 409 kts | 238° |
| 2026-04-25 20:44 | 47.09871 | 16.10010 | 29702 ft | 402 kts | 238° |
| 2026-04-25 20:44 | 47.08213 | 16.06710 | 29336 ft | 394 kts | 238° |
| 2026-04-25 20:44 | 47.06602 | 16.03462 | 28860 ft | 392 kts | 238° |
| 2026-04-25 20:44 | 47.05007 | 16.00252 | 28384 ft | 389 kts | 238° |
| 2026-04-25 20:45 | 47.03423 | 15.97074 | 27912 ft | 387 kts | 238° |
| 2026-04-25 20:45 | 47.01841 | 15.93909 | 27439 ft | 384 kts | 237° |
| 2026-04-25 20:45 | 47.00265 | 15.90763 | 26964 ft | 382 kts | 237° |
| 2026-04-25 20:45 | 46.98697 | 15.87640 | 26495 ft | 379 kts | 237° |
| 2026-04-25 20:46 | 46.97144 | 15.84551 | 26029 ft | 377 kts | 237° |
| 2026-04-25 20:46 | 46.95569 | 15.81426 | 25555 ft | 375 kts | 237° |
| 2026-04-25 20:46 | 46.94029 | 15.78373 | 25093 ft | 373 kts | 237° |
| 2026-04-25 20:46 | 46.92497 | 15.75340 | 24633 ft | 370 kts | 237° |
| 2026-04-25 20:47 | 46.91081 | 15.72541 | 24203 ft | 369 kts | 237° |
| 2026-04-25 20:47 | 46.89544 | 15.69506 | 23729 ft | 368 kts | 237° |
| 2026-04-25 20:47 | 46.88033 | 15.66525 | 23273 ft | 366 kts | 237° |
| 2026-04-25 20:47 | 46.86521 | 15.63546 | 22782 ft | 367 kts | 237° |
| 2026-04-25 20:48 | 46.84998 | 15.60548 | 22316 ft | 370 kts | 237° |
| 2026-04-25 20:48 | 46.83456 | 15.57499 | 21851 ft | 375 kts | 238° |
| 2026-04-25 20:48 | 46.81912 | 15.54435 | 21385 ft | 375 kts | 237° |
| 2026-04-25 20:48 | 46.80366 | 15.51383 | 20920 ft | 374 kts | 237° |
| 2026-04-25 20:49 | 46.78821 | 15.48351 | 20455 ft | 372 kts | 237° |
| 2026-04-25 20:49 | 46.77259 | 15.45295 | 19981 ft | 370 kts | 237° |
| 2026-04-25 20:49 | 46.75722 | 15.42297 | 19511 ft | 369 kts | 237° |
| 2026-04-25 20:49 | 46.74192 | 15.39318 | 19052 ft | 367 kts | 237° |
| 2026-04-25 20:50 | 46.72672 | 15.36362 | 18597 ft | 365 kts | 237° |
| 2026-04-25 20:50 | 46.71155 | 15.33417 | 18145 ft | 363 kts | 236° |
| 2026-04-25 20:50 | 46.69643 | 15.30483 | 17695 ft | 361 kts | 236° |
| 2026-04-25 20:50 | 46.68147 | 15.27582 | 17253 ft | 358 kts | 236° |
| 2026-04-25 20:51 | 46.66593 | 15.24760 | 16806 ft | 359 kts | 228° |
| 2026-04-25 20:51 | 46.64562 | 15.22649 | 16382 ft | 362 kts | 209° |
| 2026-04-25 20:51 | 46.62128 | 15.21582 | 15880 ft | 367 kts | 190° |
| 2026-04-25 20:51 | 46.59586 | 15.21701 | 15448 ft | 367 kts | 173° |
| 2026-04-25 20:52 | 46.57126 | 15.22642 | 15036 ft | 364 kts | 165° |
| 2026-04-25 20:52 | 46.55532 | 15.23404 | 14754 ft | 362 kts | 164° |
| 2026-04-25 20:52 | 46.52364 | 15.24861 | 14240 ft | 353 kts | 165° |
| 2026-04-25 20:52 | 46.50046 | 15.25887 | 13847 ft | 347 kts | 162° |
| 2026-04-25 20:53 | 46.47754 | 15.26885 | 13455 ft | 341 kts | 163° |
| 2026-04-25 20:53 | 46.45472 | 15.27757 | 13046 ft | 338 kts | 163° |
| 2026-04-25 20:53 | 46.43214 | 15.28589 | 12639 ft | 335 kts | 163° |
| 2026-04-25 20:53 | 46.40964 | 15.29407 | 12228 ft | 334 kts | 163° |
| 2026-04-25 20:54 | 46.38713 | 15.30219 | 11819 ft | 333 kts | 164° |
| 2026-04-25 20:54 | 46.36437 | 15.31036 | 11410 ft | 333 kts | 165° |
| 2026-04-25 20:54 | 46.34187 | 15.31839 | 11013 ft | 333 kts | 166° |
| 2026-04-25 20:54 | 46.31927 | 15.32406 | 10764 ft | 326 kts | 180° |
| 2026-04-25 20:55 | 46.29744 | 15.31884 | 10588 ft | 314 kts | 203° |
| 2026-04-25 20:55 | 46.27907 | 15.30304 | 10343 ft | 303 kts | 225° |
| 2026-04-25 20:55 | 46.26645 | 15.27986 | 10171 ft | 288 kts | 244° |
| 2026-04-25 20:55 | 46.25778 | 15.25448 | 10005 ft | 278 kts | 249° |
| 2026-04-25 20:56 | 46.24979 | 15.22913 | 9719 ft | 277 kts | 248° |
| 2026-04-25 20:56 | 46.24161 | 15.20410 | 9449 ft | 275 kts | 247° |
| 2026-04-25 20:56 | 46.23329 | 15.17938 | 9155 ft | 274 kts | 244° |
| 2026-04-25 20:56 | 46.22450 | 15.15508 | 8848 ft | 273 kts | 244° |
| 2026-04-25 20:57 | 46.21565 | 15.13097 | 8543 ft | 272 kts | 243° |
| 2026-04-25 20:57 | 46.20666 | 15.10668 | 8238 ft | 271 kts | 243° |
| 2026-04-25 20:57 | 46.19780 | 15.08282 | 7939 ft | 269 kts | 243° |
| 2026-04-25 20:57 | 46.18896 | 15.05903 | 7638 ft | 268 kts | 243° |
| 2026-04-25 20:58 | 46.18019 | 15.03542 | 7339 ft | 267 kts | 243° |
| 2026-04-25 20:58 | 46.17147 | 15.01193 | 7039 ft | 265 kts | 243° |
| 2026-04-25 20:58 | 46.16277 | 14.98859 | 6738 ft | 264 kts | 243° |
| 2026-04-25 20:58 | 46.15414 | 14.96548 | 6437 ft | 262 kts | 243° |
| 2026-04-25 20:59 | 46.14550 | 14.94238 | 6132 ft | 261 kts | 243° |
| 2026-04-25 20:59 | 46.13692 | 14.91943 | 5826 ft | 260 kts | 243° |
| 2026-04-25 20:59 | 46.12841 | 14.89662 | 5518 ft | 258 kts | 242° |
| 2026-04-25 20:59 | 46.11994 | 14.87398 | 5290 ft | 254 kts | 242° |
| 2026-04-25 21:00 | 46.11437 | 14.85910 | 5184 ft | 245 kts | 242° |
| 2026-04-25 21:00 | 46.10911 | 14.84510 | 5090 ft | 236 kts | 242° |
| 2026-04-25 21:00 | 46.09048 | 14.79463 | 4763 ft | 206 kts | 248° |
| 2026-04-25 21:01 | 46.08713 | 14.77487 | 4538 ft | 204 kts | 265° |
| 2026-04-25 21:01 | 46.08955 | 14.75488 | 4283 ft | 205 kts | 287° |
| 2026-04-25 21:01 | 46.09521 | 14.73614 | 4045 ft | 204 kts | 292° |
| 2026-04-25 21:01 | 46.10137 | 14.71762 | 3989 ft | 205 kts | 291° |
| 2026-04-25 21:02 | 46.10716 | 14.69908 | 3987 ft | 202 kts | 291° |
| 2026-04-25 21:02 | 46.11289 | 14.68062 | 3989 ft | 203 kts | 291° |
| 2026-04-25 21:02 | 46.11883 | 14.66252 | 3974 ft | 194 kts | 296° |
| 2026-04-25 21:02 | 46.12631 | 14.64671 | 3963 ft | 182 kts | 303° |
| 2026-04-25 21:03 | 46.13362 | 14.63285 | 3880 ft | 172 kts | 302° |
| 2026-04-25 21:03 | 46.14062 | 14.61942 | 3698 ft | 164 kts | 302° |
| 2026-04-25 21:03 | 46.14740 | 14.60631 | 3469 ft | 160 kts | 304° |
| 2026-04-25 21:03 | 46.15389 | 14.59370 | 3259 ft | 154 kts | 306° |
| 2026-04-25 21:04 | 46.16009 | 14.58165 | 3076 ft | 148 kts | 306° |
| 2026-04-25 21:04 | 46.16612 | 14.56990 | 2867 ft | 145 kts | 306° |
| 2026-04-25 21:04 | 46.17207 | 14.55832 | 2677 ft | 144 kts | 307° |
| 2026-04-25 21:04 | 46.17801 | 14.54675 | 2488 ft | 144 kts | 307° |
| 2026-04-25 21:05 | 46.18394 | 14.53517 | 2299 ft | 144 kts | 307° |
| 2026-04-25 21:05 | 46.18999 | 14.52338 | 2105 ft | 144 kts | 307° |
| 2026-04-25 21:05 | 46.19595 | 14.51176 | 1913 ft | 144 kts | 307° |
| 2026-04-25 21:05 | 46.20190 | 14.50015 | 1721 ft | 143 kts | 307° |
| 2026-04-25 21:06 | 46.20780 | 14.48864 | 1529 ft | 142 kts | 307° |
| 2026-04-25 21:06 | 46.21362 | 14.47734 | 1360 ft | 139 kts | 307° |
| 2026-04-25 21:06 | 46.21916 | 14.46668 | 1281 ft | 112 kts | 306° |
| 2026-04-25 21:06 | 46.22048 | 14.46408 | 1281 ft | 78 kts | 306° |
| 2026-04-25 21:07 | 46.22244 | 14.46121 | 1281 ft | 7 kts | 31° |
| 2026-04-25 21:07 | 46.22295 | 14.46174 | 1281 ft | 12 kts | 36° |
| 2026-04-25 21:07 | 46.22387 | 14.46181 | 1281 ft | 18 kts | 314° |
| 2026-04-25 21:07 | 46.22479 | 14.46007 | 1281 ft | 27 kts | 306° |
| 2026-04-25 21:08 | 46.22596 | 14.45779 | 1281 ft | 27 kts | 306° |
| 2026-04-25 21:08 | 46.22696 | 14.45583 | 1281 ft | 22 kts | 307° |
| 2026-04-25 21:08 | 46.22777 | 14.45429 | 1281 ft | 17 kts | 306° |
| 2026-04-25 21:08 | 46.22864 | 14.45334 | 1281 ft | 14 kts | 33° |
| 2026-04-25 21:09 | 46.22968 | 14.45382 | 1281 ft | 5 kts | 347° |
| 2026-04-25 21:09 | 46.23016 | 14.45410 | 1281 ft | 7 kts | 34° |
| 2026-04-25 21:09 | 46.23023 | 14.45416 | 1281 ft | 0 kts | 34° |